createdAt,value
2023-03-27T00:00:16.597Z,96.10
2023-03-27T00:02:50.011Z,98.50
2023-03-27T00:05:20.544Z,99.62
2023-03-27T00:07:49.536Z,100.00
2023-03-27T00:10:18.018Z,100.00
2023-03-27T00:12:45.792Z,100.00
2023-03-27T00:15:17.194Z,100.00
2023-03-27T00:17:49.218Z,100.00
2023-03-27T00:20:21.688Z,100.00
2023-03-27T00:22:55.429Z,100.00
2023-03-27T00:25:24.995Z,100.00
2023-03-27T00:27:54.021Z,100.00
2023-03-27T00:30:21.738Z,100.00
2023-03-27T00:32:51.290Z,100.00
2023-03-27T00:35:19.077Z,100.00
2023-03-27T00:37:47.143Z,100.00
2023-03-27T00:40:17.643Z,100.00
2023-03-27T00:42:46.144Z,100.00
2023-03-27T00:45:18.032Z,100.00
2023-03-27T00:47:47.486Z,100.00
2023-03-27T00:50:21.644Z,100.00
2023-03-27T00:52:54.033Z,100.00
2023-03-27T00:55:22.659Z,100.00
2023-03-27T00:57:55.403Z,100.00
2023-03-27T01:00:23.527Z,100.00
2023-03-27T01:02:52.184Z,100.00
2023-03-27T01:05:22.160Z,100.00
2023-03-27T01:08:00.532Z,100.00
2023-03-27T01:10:37.007Z,100.00
2023-03-27T01:13:13.757Z,100.00
2023-03-27T01:15:48.252Z,100.00
2023-03-27T01:18:27.492Z,100.00
2023-03-27T01:21:49.055Z,100.00
2023-03-27T01:24:43.856Z,100.00
2023-03-27T01:27:19.137Z,100.00
2023-03-27T01:29:55.794Z,100.00
2023-03-27T01:32:52.660Z,100.00
2023-03-27T01:36:05.421Z,100.00
2023-03-27T01:39:14.817Z,100.00
2023-03-27T01:41:51.859Z,100.00
2023-03-27T01:44:36.454Z,100.00
2023-03-27T01:47:22.504Z,100.00
2023-03-27T01:49:55.021Z,100.00
2023-03-27T01:52:28.225Z,100.00
2023-03-27T01:55:03.543Z,100.00
2023-03-27T01:57:49.250Z,100.00
2023-03-27T02:00:22.975Z,100.00
2023-03-27T02:02:55.173Z,100.00
2023-03-27T02:05:29.416Z,100.00
2023-03-27T02:08:02.148Z,100.00
2023-03-27T02:10:34.062Z,100.00
2023-03-27T02:13:08.273Z,100.00
2023-03-27T02:15:41.001Z,100.00
2023-03-27T02:18:12.462Z,100.00
2023-03-27T02:20:42.073Z,100.00
2023-03-27T02:23:09.949Z,100.00
2023-03-27T02:25:39.836Z,100.00
2023-03-27T02:28:35.929Z,100.00
2023-03-27T02:31:34.023Z,100.00
2023-03-27T02:34:16.547Z,100.00
2023-03-27T02:36:55.012Z,100.00
2023-03-27T02:39:28.080Z,100.00
2023-03-27T02:42:03.565Z,100.00
2023-03-27T02:44:46.533Z,100.00
2023-03-27T02:47:21.312Z,100.00
2023-03-27T02:49:53.705Z,100.00
2023-03-27T02:52:27.805Z,100.00
2023-03-27T02:55:06.322Z,100.00
2023-03-27T02:57:39.639Z,100.00
2023-03-27T03:00:18.572Z,100.00
2023-03-27T03:02:50.356Z,100.00
2023-03-27T03:05:22.240Z,100.00
2023-03-27T03:07:50.576Z,100.00
2023-03-27T03:10:18.482Z,100.00
2023-03-27T03:12:46.210Z,100.00
2023-03-27T03:15:15.354Z,100.00
2023-03-27T03:17:43.360Z,100.00
2023-03-27T03:20:13.407Z,100.00
2023-03-27T03:22:42.127Z,100.00
2023-03-27T03:25:11.576Z,100.00
2023-03-27T03:27:41.381Z,100.00
2023-03-27T03:30:10.523Z,100.00
2023-03-27T03:32:47.302Z,100.00
2023-03-27T03:35:15.367Z,100.00
2023-03-27T03:37:43.920Z,100.00
2023-03-27T03:40:12.640Z,100.00
2023-03-27T03:42:45.792Z,100.00
2023-03-27T03:45:13.648Z,100.00
2023-03-27T03:47:41.640Z,100.00
2023-03-27T03:50:12.024Z,100.00
2023-03-27T03:52:39.873Z,100.00
2023-03-27T03:55:09.454Z,100.00
2023-03-27T03:57:37.417Z,100.00
2023-03-27T04:00:08.508Z,100.00
2023-03-27T04:02:37.615Z,100.00
2023-03-27T04:05:08.903Z,100.00
2023-03-27T04:07:40.967Z,100.00
2023-03-27T04:10:09.890Z,100.00
2023-03-27T04:12:37.594Z,100.00
2023-03-27T04:15:06.201Z,100.00
2023-03-27T04:17:34.522Z,100.00
2023-03-27T04:20:05.913Z,100.00
2023-03-27T04:22:37.848Z,100.00
2023-03-27T04:25:09.060Z,100.00
2023-03-27T04:27:36.912Z,100.00
2023-03-27T04:30:08.607Z,100.00
2023-03-27T04:32:36.809Z,100.00
2023-03-27T04:35:05.153Z,100.00
2023-03-27T04:37:32.880Z,100.00
2023-03-27T04:40:00.786Z,100.00
2023-03-27T04:42:29.893Z,100.00
2023-03-27T04:44:57.790Z,100.00
2023-03-27T04:47:25.647Z,100.00
2023-03-27T04:49:53.441Z,100.00
2023-03-27T04:52:21.424Z,100.00
2023-03-27T04:54:49.150Z,100.00
2023-03-27T04:57:19.087Z,100.00
2023-03-27T04:59:48.630Z,100.00
2023-03-27T05:02:16.526Z,100.00
2023-03-27T05:04:44.329Z,100.00
2023-03-27T05:07:12.471Z,100.00
2023-03-27T05:09:40.251Z,100.00
2023-03-27T05:12:08.843Z,100.00
2023-03-27T05:14:37.767Z,100.00
2023-03-27T05:17:06.992Z,100.00
2023-03-27T05:19:35.135Z,100.00
2023-03-27T05:22:03.064Z,100.00
2023-03-27T05:24:30.774Z,100.00
2023-03-27T05:26:58.563Z,100.00
2023-03-27T05:29:26.680Z,100.00
2023-03-27T05:31:54.399Z,100.00
2023-03-27T05:34:23.726Z,100.00
2023-03-27T05:36:51.510Z,100.00
2023-03-27T05:39:19.853Z,100.00
2023-03-27T05:41:47.646Z,100.00
2023-03-27T05:44:15.363Z,100.00
2023-03-27T05:46:43.582Z,100.00
2023-03-27T05:49:11.404Z,100.00
2023-03-27T05:51:46.972Z,100.00
2023-03-27T05:54:15.382Z,100.00
2023-03-27T05:56:43.134Z,100.00
2023-03-27T05:59:10.951Z,100.00
2023-03-27T06:01:39.878Z,100.00
2023-03-27T06:04:09.260Z,100.00
2023-03-27T06:06:37.370Z,100.00
2023-03-27T06:09:07.779Z,100.00
2023-03-27T06:11:35.734Z,100.00
2023-03-27T06:14:04.132Z,100.00
2023-03-27T06:16:31.957Z,100.00
2023-03-27T06:18:59.988Z,100.00
2023-03-27T06:21:27.820Z,100.00
2023-03-27T06:23:56.312Z,100.00
2023-03-27T06:26:25.424Z,100.00
2023-03-27T06:28:53.326Z,100.00
2023-03-27T06:31:22.077Z,100.00
2023-03-27T06:33:50.510Z,100.00
2023-03-27T06:36:18.592Z,100.00
2023-03-27T06:38:46.388Z,100.00
2023-03-27T06:41:14.120Z,100.00
2023-03-27T06:43:43.223Z,100.00
2023-03-27T06:46:11.056Z,100.00
2023-03-27T06:48:39.516Z,100.00
2023-03-27T06:51:07.986Z,100.00
2023-03-27T06:53:38.102Z,100.00
2023-03-27T06:56:07.350Z,100.00
2023-03-27T06:58:35.111Z,100.00
2023-03-27T07:01:04.504Z,100.00
2023-03-27T07:03:32.324Z,100.00
2023-03-27T07:06:00.695Z,100.00
2023-03-27T07:08:29.513Z,100.00
2023-03-27T07:11:10.828Z,100.00
2023-03-27T07:13:41.126Z,100.00
2023-03-27T07:16:12.738Z,100.00
2023-03-27T07:18:41.837Z,100.00
2023-03-27T07:21:09.919Z,100.00
2023-03-27T07:23:37.647Z,100.00
2023-03-27T07:26:05.903Z,100.00
2023-03-27T07:28:33.777Z,100.00
2023-03-27T07:31:01.932Z,100.00
2023-03-27T07:33:31.409Z,100.00
2023-03-27T07:35:59.560Z,100.00
2023-03-27T07:38:27.435Z,100.00
2023-03-27T07:40:57.586Z,100.00
2023-03-27T07:43:26.365Z,100.00
2023-03-27T07:45:55.166Z,100.00
2023-03-27T07:48:24.704Z,100.00
2023-03-27T07:51:00.670Z,100.00
2023-03-27T07:53:33.237Z,100.00
2023-03-27T07:56:02.752Z,100.00
2023-03-27T07:58:30.571Z,100.00
2023-03-27T08:01:02.480Z,100.00
2023-03-27T08:03:32.094Z,100.00
2023-03-27T08:06:01.625Z,100.00
2023-03-27T08:08:29.830Z,100.00
2023-03-27T08:10:58.967Z,100.00
2023-03-27T08:13:27.370Z,100.00
2023-03-27T08:16:04.210Z,100.00
2023-03-27T08:18:32.200Z,100.00
2023-03-27T08:21:03.202Z,100.00
2023-03-27T08:23:32.697Z,100.00
2023-03-27T08:26:01.124Z,100.00
2023-03-27T08:28:29.760Z,93.99
2023-03-27T08:31:02.562Z,97.99
2023-03-27T08:33:31.009Z,92.47
2023-03-27T08:35:59.246Z,85.38
2023-03-27T08:38:33.295Z,81.33
2023-03-27T08:41:03.811Z,77.51
2023-03-27T08:43:37.258Z,79.25
2023-03-27T08:46:11.308Z,79.16
2023-03-27T08:48:44.993Z,78.51
2023-03-27T08:51:19.796Z,76.24
2023-03-27T08:53:54.401Z,76.95
2023-03-27T08:56:23.133Z,77.18
2023-03-27T08:58:50.998Z,76.54
2023-03-27T09:01:26.587Z,76.11
2023-03-27T09:04:01.786Z,76.19
2023-03-27T09:06:38.245Z,75.80
2023-03-27T09:09:16.954Z,76.25
2023-03-27T09:11:57.686Z,77.25
2023-03-27T09:14:32.582Z,76.57
2023-03-27T09:17:05.981Z,74.05
2023-03-27T09:19:42.303Z,74.01
2023-03-27T09:22:15.292Z,74.89
2023-03-27T09:24:48.104Z,73.46
2023-03-27T09:27:21.069Z,74.81
2023-03-27T09:30:06.332Z,72.89
2023-03-27T09:32:34.946Z,72.08
2023-03-27T09:35:04.612Z,72.01
2023-03-27T09:37:34.547Z,70.80
2023-03-27T09:40:07.448Z,72.44
2023-03-27T09:42:40.744Z,70.74
2023-03-27T09:45:13.799Z,71.66
2023-03-27T09:47:46.671Z,71.88
2023-03-27T09:50:27.771Z,72.40
2023-03-27T09:53:08.317Z,72.38
2023-03-27T09:55:51.168Z,73.25
2023-03-27T09:58:29.593Z,73.09
2023-03-27T10:01:16.832Z,73.27
2023-03-27T10:03:50.119Z,73.48
2023-03-27T10:06:27.625Z,72.27
2023-03-27T10:08:58.037Z,71.53
2023-03-27T10:11:31.631Z,70.64
2023-03-27T10:14:01.649Z,70.68
2023-03-27T10:16:31.024Z,70.60
2023-03-27T10:19:01.229Z,67.72
2023-03-27T10:21:32.781Z,67.19
2023-03-27T10:24:04.157Z,66.72
2023-03-27T10:26:34.999Z,66.40
2023-03-27T10:29:22.219Z,66.92
2023-03-27T10:31:52.818Z,66.75
2023-03-27T10:34:39.977Z,67.33
2023-03-27T10:37:23.271Z,66.99
2023-03-27T10:39:55.882Z,67.47
2023-03-27T10:42:29.022Z,68.17
2023-03-27T10:44:58.246Z,65.04
2023-03-27T10:47:28.540Z,64.75
2023-03-27T10:50:04.143Z,65.25
2023-03-27T10:52:41.865Z,66.48
2023-03-27T10:55:34.087Z,64.77
2023-03-27T10:58:11.594Z,65.90
2023-03-27T11:00:44.616Z,65.10
2023-03-27T11:03:19.093Z,65.49
2023-03-27T11:05:49.399Z,66.56
2023-03-27T11:08:23.452Z,66.84
2023-03-27T11:10:52.135Z,67.24
2023-03-27T11:13:27.946Z,64.27
2023-03-27T11:16:05.264Z,63.69
2023-03-27T11:18:40.036Z,66.73
2023-03-27T11:21:12.932Z,68.53
2023-03-27T11:23:47.314Z,70.45
2023-03-27T11:26:16.737Z,69.72
2023-03-27T11:28:53.336Z,70.62
2023-03-27T11:31:35.206Z,70.86
2023-03-27T11:34:06.987Z,72.55
2023-03-27T11:36:40.811Z,71.11
2023-03-27T11:39:17.302Z,70.43
2023-03-27T11:41:50.852Z,69.76
2023-03-27T11:44:21.189Z,69.80
2023-03-27T11:47:14.700Z,67.07
2023-03-27T11:49:55.592Z,65.83
2023-03-27T11:52:37.775Z,64.73
2023-03-27T11:55:17.318Z,64.37
2023-03-27T11:58:01.009Z,65.39
2023-03-27T12:00:36.320Z,65.05
2023-03-27T12:03:29.695Z,64.54
2023-03-27T12:06:15.620Z,64.18
2023-03-27T12:08:58.058Z,64.22
2023-03-27T12:11:27.339Z,63.68
2023-03-27T12:14:28.247Z,63.61
2023-03-27T12:17:34.442Z,64.18
2023-03-27T12:20:29.086Z,64.37
2023-03-27T12:23:03.717Z,65.50
2023-03-27T12:25:59.852Z,65.72
2023-03-27T12:28:44.787Z,64.33
2023-03-27T12:31:37.067Z,64.41
2023-03-27T12:34:13.520Z,64.38
2023-03-27T12:36:48.088Z,64.47
2023-03-27T12:39:21.128Z,64.59
2023-03-27T12:41:48.898Z,63.94
2023-03-27T12:44:19.897Z,63.77
2023-03-27T12:47:07.712Z,65.35
2023-03-27T12:49:48.473Z,64.36
2023-03-27T12:52:19.333Z,64.41
2023-03-27T12:55:29.671Z,63.93
2023-03-27T12:57:58.240Z,64.37
2023-03-27T13:00:28.817Z,65.58
2023-03-27T13:03:27.607Z,66.83
2023-03-27T13:06:08.658Z,68.15
2023-03-27T13:08:51.057Z,69.19
2023-03-27T13:11:34.988Z,70.23
2023-03-27T13:14:31.474Z,69.26
2023-03-27T13:17:15.098Z,70.69
2023-03-27T13:19:54.262Z,71.08
2023-03-27T13:22:37.090Z,71.29
2023-03-27T13:25:26.284Z,69.21
2023-03-27T13:28:17.770Z,68.00
2023-03-27T13:30:48.692Z,66.29
2023-03-27T13:33:18.740Z,64.32
2023-03-27T13:36:00.037Z,64.55
2023-03-27T13:39:10.368Z,63.38
2023-03-27T13:41:52.090Z,63.34
2023-03-27T13:44:28.095Z,62.82
2023-03-27T13:47:02.910Z,63.16
2023-03-27T13:49:46.807Z,63.50
2023-03-27T13:52:56.699Z,64.14
2023-03-27T13:55:56.881Z,65.40
2023-03-27T13:58:41.044Z,65.98
2023-03-27T14:01:22.073Z,65.49
2023-03-27T14:04:29.434Z,66.43
2023-03-27T14:07:34.300Z,65.17
2023-03-27T14:10:15.790Z,65.13
2023-03-27T14:12:59.188Z,64.80
2023-03-27T14:15:50.644Z,64.17
2023-03-27T14:18:37.586Z,63.89
2023-03-27T14:21:09.276Z,62.62
2023-03-27T14:23:45.149Z,61.67
2023-03-27T14:26:18.621Z,63.51
2023-03-27T14:28:53.462Z,63.30
2023-03-27T14:31:23.085Z,63.96
2023-03-27T14:33:52.400Z,64.34
2023-03-27T14:36:25.970Z,64.34
2023-03-27T14:38:54.074Z,64.52
2023-03-27T14:41:24.073Z,64.38
2023-03-27T14:43:56.938Z,63.79
2023-03-27T14:46:26.628Z,61.82
2023-03-27T14:48:57.992Z,62.46
2023-03-27T14:51:42.146Z,60.75
2023-03-27T14:54:14.917Z,60.69
2023-03-27T14:56:47.554Z,60.38
2023-03-27T14:59:21.960Z,58.30
2023-03-27T15:01:52.339Z,57.61
2023-03-27T15:04:20.821Z,58.13
2023-03-27T15:06:50.122Z,59.03
2023-03-27T15:09:20.031Z,59.01
2023-03-27T15:11:49.425Z,58.75
2023-03-27T15:14:25.384Z,58.95
2023-03-27T15:16:58.411Z,59.16
2023-03-27T15:19:30.379Z,59.67
2023-03-27T15:22:02.869Z,60.07
2023-03-27T15:24:39.933Z,59.23
2023-03-27T15:27:14.356Z,59.11
2023-03-27T15:29:46.759Z,60.08
2023-03-27T15:32:18.593Z,58.87
2023-03-27T15:34:49.249Z,58.80
2023-03-27T15:37:19.807Z,58.05
2023-03-27T15:40:26.682Z,56.28
2023-03-27T15:43:01.395Z,58.28
2023-03-27T15:45:39.962Z,55.92
2023-03-27T15:48:18.952Z,55.56
2023-03-27T15:50:56.851Z,54.18
2023-03-27T15:53:33.275Z,54.06
2023-03-27T15:56:03.076Z,53.30
2023-03-27T15:58:40.505Z,54.41
2023-03-27T16:01:18.643Z,53.71
2023-03-27T16:03:50.431Z,53.29
2023-03-27T16:06:27.762Z,53.62
2023-03-27T16:08:56.205Z,53.62
2023-03-27T16:11:35.678Z,54.36
2023-03-27T16:14:04.125Z,55.29
2023-03-27T16:16:34.878Z,61.54
2023-03-27T16:19:04.000Z,64.44
2023-03-27T16:21:36.127Z,64.74
2023-03-27T16:24:04.015Z,65.54
2023-03-27T16:26:33.084Z,65.23
2023-03-27T16:29:04.431Z,65.30
2023-03-27T16:31:33.689Z,64.77
2023-03-27T16:34:01.893Z,64.41
2023-03-27T16:36:33.017Z,64.88
2023-03-27T16:39:00.869Z,64.30
2023-03-27T16:41:28.625Z,69.92
2023-03-27T16:43:56.378Z,73.07
2023-03-27T16:46:26.202Z,73.50
2023-03-27T16:48:56.344Z,74.41
2023-03-27T16:51:25.892Z,75.53
2023-03-27T16:53:53.958Z,76.56
2023-03-27T16:56:22.335Z,75.86
2023-03-27T16:58:50.578Z,75.83
2023-03-27T17:01:18.385Z,75.13
2023-03-27T17:03:46.421Z,73.97
2023-03-27T17:06:18.852Z,73.76
2023-03-27T17:08:46.753Z,71.81
2023-03-27T17:11:14.865Z,71.53
2023-03-27T17:13:43.711Z,71.76
2023-03-27T17:16:11.717Z,72.59
2023-03-27T17:18:39.507Z,71.24
2023-03-27T17:21:07.668Z,70.36
2023-03-27T17:23:36.793Z,71.48
2023-03-27T17:26:06.114Z,72.81
2023-03-27T17:28:33.879Z,73.35
2023-03-27T17:31:05.186Z,71.83
2023-03-27T17:33:33.769Z,70.33
2023-03-27T17:36:01.964Z,70.08
2023-03-27T17:38:30.651Z,69.70
2023-03-27T17:40:59.818Z,69.03
2023-03-27T17:43:27.650Z,67.81
2023-03-27T17:45:55.650Z,67.14
2023-03-27T17:48:23.488Z,66.11
2023-03-27T17:51:05.124Z,66.12
2023-03-27T17:53:36.682Z,66.29
2023-03-27T17:56:06.544Z,66.51
2023-03-27T17:58:35.057Z,65.87
2023-03-27T18:01:13.821Z,65.99
2023-03-27T18:03:41.684Z,63.89
2023-03-27T18:06:09.784Z,63.81
2023-03-27T18:08:37.836Z,63.61
2023-03-27T18:11:10.279Z,64.07
2023-03-27T18:13:38.776Z,63.87
2023-03-27T18:16:10.359Z,64.18
2023-03-27T18:18:39.964Z,65.26
2023-03-27T18:21:08.124Z,65.86
2023-03-27T18:23:38.360Z,67.04
2023-03-27T18:26:15.510Z,67.31
2023-03-27T18:28:43.742Z,67.66
2023-03-27T18:31:12.897Z,68.58
2023-03-27T18:33:40.903Z,68.55
2023-03-27T18:36:10.788Z,68.41
2023-03-27T18:38:40.309Z,68.03
2023-03-27T18:41:08.723Z,68.86
2023-03-27T18:43:38.194Z,69.24
2023-03-27T18:46:08.370Z,69.44
2023-03-27T18:48:36.658Z,69.13
2023-03-27T18:51:06.648Z,68.51
2023-03-27T18:53:34.551Z,68.99
2023-03-27T18:56:03.212Z,68.60
2023-03-27T18:58:31.268Z,68.88
2023-03-27T19:01:00.910Z,69.11
2023-03-27T19:03:34.726Z,69.91
2023-03-27T19:06:04.521Z,70.33
2023-03-27T19:08:32.874Z,71.14
2023-03-27T19:11:01.099Z,71.59
2023-03-27T19:13:29.114Z,72.23
2023-03-27T19:15:56.850Z,73.24
2023-03-27T19:18:29.890Z,73.88
2023-03-27T19:20:59.813Z,73.75
2023-03-27T19:23:28.171Z,74.34
2023-03-27T19:25:56.160Z,75.11
2023-03-27T19:28:23.973Z,75.08
2023-03-27T19:30:54.215Z,75.02
2023-03-27T19:33:22.066Z,74.83
2023-03-27T19:35:54.512Z,74.87
2023-03-27T19:38:22.311Z,75.73
2023-03-27T19:40:50.240Z,76.06
2023-03-27T19:43:18.851Z,76.34
2023-03-27T19:46:01.143Z,76.96
2023-03-27T19:48:37.146Z,77.42
2023-03-27T19:51:06.875Z,78.05
2023-03-27T19:53:34.604Z,78.46
2023-03-27T19:56:03.237Z,78.63
2023-03-27T19:58:31.009Z,77.97
2023-03-27T20:00:59.710Z,77.74
2023-03-27T20:03:29.417Z,77.82
2023-03-27T20:06:06.893Z,77.89
2023-03-27T20:08:38.733Z,77.90
2023-03-27T20:11:07.428Z,76.98
2023-03-27T20:13:48.947Z,77.51
2023-03-27T20:16:26.073Z,78.19
2023-03-27T20:19:03.274Z,78.06
2023-03-27T20:21:32.437Z,77.84
2023-03-27T20:24:01.733Z,78.23
2023-03-27T20:26:29.898Z,78.45
2023-03-27T20:28:57.886Z,78.58
2023-03-27T20:31:25.765Z,79.25
2023-03-27T20:33:53.554Z,79.71
2023-03-27T20:36:23.178Z,80.41
2023-03-27T20:38:52.920Z,80.69
2023-03-27T20:41:22.120Z,81.61
2023-03-27T20:43:50.906Z,82.21
2023-03-27T20:46:18.825Z,82.38
2023-03-27T20:48:53.944Z,82.23
2023-03-27T20:51:24.832Z,81.41
2023-03-27T20:53:55.765Z,81.00
2023-03-27T20:56:26.223Z,79.82
2023-03-27T20:58:54.046Z,79.70
2023-03-27T21:01:27.624Z,79.42
2023-03-27T21:03:58.198Z,79.03
2023-03-27T21:06:26.425Z,78.87
2023-03-27T21:08:54.300Z,78.69
2023-03-27T21:11:22.097Z,78.92
2023-03-27T21:13:51.481Z,78.17
2023-03-27T21:16:19.365Z,78.72
2023-03-27T21:18:47.154Z,78.28
2023-03-27T21:21:14.894Z,79.01
2023-03-27T21:23:42.625Z,78.54
2023-03-27T21:26:10.500Z,78.34
2023-03-27T21:28:38.227Z,78.88
2023-03-27T21:31:09.500Z,78.99
2023-03-27T21:33:37.625Z,79.40
2023-03-27T21:36:06.269Z,79.27
2023-03-27T21:38:34.134Z,79.34
2023-03-27T21:41:02.990Z,79.75
2023-03-27T21:43:31.386Z,82.19
2023-03-27T21:46:01.665Z,86.53
2023-03-27T21:48:31.235Z,90.21
2023-03-27T21:51:00.729Z,94.37
2023-03-27T21:53:28.794Z,97.47
2023-03-27T21:55:57.656Z,100.00
2023-03-27T21:58:26.144Z,100.00
2023-03-27T22:00:56.153Z,100.00
2023-03-27T22:03:24.582Z,100.00
2023-03-27T22:06:08.162Z,100.00
2023-03-27T22:08:39.011Z,100.00
2023-03-27T22:11:07.491Z,100.00
2023-03-27T22:13:35.888Z,100.00
2023-03-27T22:16:08.522Z,100.00
2023-03-27T22:18:36.380Z,100.00
2023-03-27T22:21:15.140Z,100.00
2023-03-27T22:23:42.977Z,100.00
2023-03-27T22:26:11.245Z,100.00
2023-03-27T22:28:38.980Z,100.00
2023-03-27T22:31:07.470Z,100.00
2023-03-27T22:33:35.500Z,100.00
2023-03-27T22:36:03.646Z,100.00
2023-03-27T22:38:33.794Z,100.00
2023-03-27T22:41:01.893Z,100.00
2023-03-27T22:43:30.601Z,100.00
2023-03-27T22:46:04.922Z,100.00
2023-03-27T22:48:32.895Z,100.00
2023-03-27T22:51:00.915Z,100.00
2023-03-27T22:53:29.439Z,100.00
2023-03-27T22:56:00.169Z,100.00
2023-03-27T22:58:28.992Z,100.00
2023-03-27T23:00:57.172Z,100.00
2023-03-27T23:03:26.409Z,100.00
2023-03-27T23:05:54.864Z,100.00
2023-03-27T23:08:24.982Z,100.00
2023-03-27T23:10:56.044Z,100.00
2023-03-27T23:13:25.519Z,100.00
2023-03-27T23:15:53.319Z,100.00
2023-03-27T23:18:24.600Z,100.00
2023-03-27T23:20:56.550Z,100.00
2023-03-27T23:23:24.873Z,100.00
2023-03-27T23:25:52.739Z,100.00
2023-03-27T23:28:20.522Z,100.00
2023-03-27T23:30:55.597Z,100.00
2023-03-27T23:33:25.350Z,100.00
2023-03-27T23:35:53.785Z,100.00
2023-03-27T23:38:21.867Z,100.00
2023-03-27T23:40:55.581Z,100.00
2023-03-27T23:43:23.540Z,100.00
2023-03-27T23:45:51.355Z,100.00
2023-03-27T23:48:20.504Z,100.00
2023-03-27T23:50:48.885Z,100.00
2023-03-27T23:53:17.134Z,100.00
2023-03-27T23:55:45.284Z,100.00
2023-03-27T23:58:13.012Z,100.00
